Time;durP1;ratioP1;P1;durP2;ratioP2;P2;SDS_P1;SDS_P2;PMS_P1;PMS_P2;Temp;Humidity;BMP_temperature;BMP_pressure;BME280_temperature;BME280_humidity;BME280_pressure;Samples;Min_cycle;Max_cycle;Signal;HPM_P1;HPM_P2
2022/06/13 00:00:13;;;;;;;20.02;11.15;;;;;;;;;;6222454;23;20079;-76
2022/06/13 00:02:38;;;;;;;23.30;10.32;;;;;;;;;;6244375;23;20062;-76
2022/06/13 00:05:04;;;;;;;22.70;10.50;;;;;;;;;;6244121;23;20362;-78
2022/06/13 00:07:30;;;;;;;20.95;10.30;;;;;;;;;;6245687;23;20071;-76
2022/06/13 00:09:56;;;;;;;20.20;10.25;;;;;;;;;;6243762;23;20438;-76
2022/06/13 00:12:21;;;;;;;19.70;10.32;;;;;;;;;;6217480;23;20027;-76
2022/06/13 00:14:47;;;;;;;18.25;10.10;;;;;;;;;;6244026;23;20372;-78
2022/06/13 00:17:12;;;;;;;17.80;9.88;;;;;;;;;;6243928;23;20066;-76
2022/06/13 00:19:38;;;;;;;18.85;9.75;;;;;;;;;;6248429;23;20004;-76
2022/06/13 00:22:03;;;;;;;23.65;9.35;;;;;;;;;;6244179;23;20000;-77
2022/06/13 00:24:29;;;;;;;18.20;9.93;;;;;;;;;;6243455;23;20007;-76
2022/06/13 00:26:54;;;;;;;17.10;9.02;;;;;;;;;;6245169;23;20031;-76
2022/06/13 00:29:20;;;;;;;15.73;8.95;;;;;;;;;;6245988;23;20011;-76
2022/06/13 00:31:45;;;;;;;15.30;8.48;;;;;;;;;;6245989;23;20032;-76
2022/06/13 00:34:11;;;;;;;16.02;8.65;;;;;;;;;;6246007;23;20087;-76
2022/06/13 00:36:36;;;;;;;19.80;8.63;;;;;;;;;;6245892;23;20000;-78
2022/06/13 00:39:02;;;;;;;12.63;7.75;;;;;;;;;;6246035;23;20008;-75
2022/06/13 00:41:30;;;;;;;14.68;8.48;;;;;;;;;;6246065;23;20004;-76
2022/06/13 00:43:56;;;;;;;20.05;8.43;;;;;;;;;;6219240;23;20423;-76
2022/06/13 00:46:24;;;;;;;13.00;7.35;;;;;;;;;;6193700;23;20007;-77
2022/06/13 00:48:56;;;;;;;15.95;7.85;;;;;;;;;;6245521;23;20000;-76
2022/06/13 00:51:21;;;;;;;18.70;8.70;;;;;;;;;;6218562;23;20000;-76
2022/06/13 00:53:47;;;;;;;15.25;7.75;;;;;;;;;;6194172;23;20004;-76
2022/06/13 00:56:18;;;;;;;17.52;7.95;;;;;;;;;;6218548;23;20001;-76
2022/06/13 00:58:46;;;;;;;13.30;7.82;;;;;;;;;;6219183;23;20099;-76
2022/06/13 01:01:12;;;;;;;13.63;8.05;;;;;;;;;;6198325;23;20004;-75
2022/06/13 01:03:37;;;;;;;17.27;8.60;;;;;;;;;;6218604;23;20004;-76
2022/06/13 01:06:04;;;;;;;14.73;8.32;;;;;;;;;;6245092;23;20011;-75
2022/06/13 01:08:32;;;;;;;16.88;8.07;;;;;;;;;;6218769;23;20058;-77
2022/06/13 01:11:18;;;;;;;14.00;8.13;;;;;;;;;;6219259;23;20000;-77
2022/06/13 01:13:52;;;;;;;18.88;8.52;;;;;;;;;;6201361;23;20360;-76
2022/06/13 01:16:22;;;;;;;21.98;8.45;;;;;;;;;;6245130;23;20012;-74
2022/06/13 01:19:13;;;;;;;12.98;7.35;;;;;;;;;;6218989;23;20000;-76
2022/06/13 01:21:51;;;;;;;18.02;8.68;;;;;;;;;;6223181;23;20335;-76
2022/06/13 01:24:54;;;;;;;19.42;8.30;;;;;;;;;;6245221;23;20070;-76
2022/06/13 01:27:45;;;;;;;16.50;8.95;;;;;;;;;;6245283;23;20000;-77
2022/06/13 01:30:27;;;;;;;19.17;8.40;;;;;;;;;;6218975;23;20008;-77
2022/06/13 01:33:04;;;;;;;13.98;8.10;;;;;;;;;;6218416;23;20024;-75
2022/06/13 01:35:38;;;;;;;14.00;8.50;;;;;;;;;;6219734;23;20000;-76
2022/06/13 01:38:23;;;;;;;19.58;8.68;;;;;;;;;;6244722;23;20006;-76
2022/06/13 01:41:35;;;;;;;21.55;9.25;;;;;;;;;;6245032;23;20407;-76
2022/06/13 01:44:19;;;;;;;15.57;8.82;;;;;;;;;;6229710;23;20028;-77
2022/06/13 01:46:54;;;;;;;17.38;8.73;;;;;;;;;;6244918;23;20403;-76
2022/06/13 01:49:27;;;;;;;19.15;8.88;;;;;;;;;;6218126;23;20058;-76
2022/06/13 01:52:00;;;;;;;16.00;8.65;;;;;;;;;;6218530;23;20347;-78
2022/06/13 01:54:35;;;;;;;17.10;8.80;;;;;;;;;;6218887;23;20091;-76
2022/06/13 01:57:04;;;;;;;15.75;8.32;;;;;;;;;;6194425;23;20004;-77
2022/06/13 01:59:54;;;;;;;18.20;8.65;;;;;;;;;;6245065;23;20083;-77
2022/06/13 02:02:47;;;;;;;29.33;10.27;;;;;;;;;;6224234;23;20000;-77
2022/06/13 02:05:23;;;;;;;21.27;8.38;;;;;;;;;;6199735;23;20004;-77
2022/06/13 02:07:56;;;;;;;15.35;8.77;;;;;;;;;;6217963;23;20000;-77
2022/06/13 02:10:25;;;;;;;17.42;8.15;;;;;;;;;;6219141;23;20032;-77
2022/06/13 02:12:52;;;;;;;17.17;8.35;;;;;;;;;;6193420;23;20424;-77
2022/06/13 02:15:25;;;;;;;23.42;10.27;;;;;;;;;;6218130;23;20095;-77
2022/06/13 02:17:54;;;;;;;34.53;14.00;;;;;;;;;;6245040;23;20040;-77
2022/06/13 02:20:22;;;;;;;53.22;26.30;;;;;;;;;;6194264;23;20010;-77
2022/06/13 02:22:53;;;;;;;60.90;25.17;;;;;;;;;;6201667;23;20423;-77
2022/06/13 02:25:30;;;;;;;;;;;;;;;;;;6218607;23;20000;-77
2022/06/13 02:27:58;;;;;;;41.92;19.98;;;;;;;;;;6217750;23;19992;-77
2022/06/13 02:30:27;;;;;;;32.60;15.77;;;;;;;;;;6244488;23;20023;-77
2022/06/13 02:33:00;;;;;;;33.67;14.10;;;;;;;;;;6244506;23;20035;-77
2022/06/13 02:35:46;;;;;;;23.52;9.68;;;;;;;;;;6194924;23;20000;-77
2022/06/13 02:38:16;;;;;;;20.85;8.95;;;;;;;;;;6171710;23;20359;-76
2022/06/13 02:40:47;;;;;;;17.50;9.75;;;;;;;;;;6195169;23;20004;-78
2022/06/13 02:43:31;;;;;;;17.48;8.98;;;;;;;;;;6218058;23;20011;-77
2022/06/13 02:46:19;;;;;;;14.05;8.73;;;;;;;;;;6217854;23;20000;-77
2022/06/13 02:49:34;;;;;;;13.60;7.45;;;;;;;;;;6217176;23;20011;-77
2022/06/13 02:52:17;;;;;;;17.42;7.68;;;;;;;;;;6159221;23;20057;-77
2022/06/13 02:54:47;;;;;;;11.45;7.38;;;;;;;;;;6247521;23;20084;-77
2022/06/13 02:57:37;;;;;;;14.30;7.70;;;;;;;;;;6252048;23;20008;-77
2022/06/13 03:00:05;;;;;;;;;;;;;;;;;;6232505;23;20054;-76
2022/06/13 03:02:48;;;;;;;21.05;8.45;;;;;;;;;;6245044;23;19914;-77
2022/06/13 03:05:32;;;;;;;15.52;9.18;;;;;;;;;;6217462;23;20061;-76
2022/06/13 03:08:24;;;;;;;20.90;9.43;;;;;;;;;;6217489;23;20028;-77
2022/06/13 03:10:50;;;;;;;20.77;9.43;;;;;;;;;;6219305;23;20034;-77
2022/06/13 03:13:47;;;;;;;18.63;9.63;;;;;;;;;;6244536;23;20004;-77
2022/06/13 03:16:35;;;;;;;20.15;9.98;;;;;;;;;;6195396;23;20502;-77
2022/06/13 03:19:22;;;;;;;21.83;9.50;;;;;;;;;;6222896;23;20011;-77
2022/06/13 03:21:52;;;;;;;25.83;9.98;;;;;;;;;;6219101;23;20008;-77
2022/06/13 03:24:18;;;;;;;19.53;10.00;;;;;;;;;;6192855;23;20011;-77
2022/06/13 03:26:49;;;;;;;18.90;10.00;;;;;;;;;;6217660;23;20543;-77
2022/06/13 03:29:33;;;;;;;26.55;10.38;;;;;;;;;;6218688;23;20005;-77
2022/06/13 03:32:05;;;;;;;17.08;9.40;;;;;;;;;;6217491;23;20004;-77
2022/06/13 03:34:37;;;;;;;17.88;9.60;;;;;;;;;;6192797;23;20087;-76
2022/06/13 03:37:06;;;;;;;16.83;9.90;;;;;;;;;;6218261;23;20035;-77
2022/06/13 03:39:34;;;;;;;21.98;9.32;;;;;;;;;;6197973;23;20004;-77
2022/06/13 03:42:16;;;;;;;21.73;10.10;;;;;;;;;;6217427;23;20059;-77
2022/06/13 03:45:08;;;;;;;21.10;9.98;;;;;;;;;;6218626;23;20000;-78
2022/06/13 03:47:40;;;;;;;17.20;8.77;;;;;;;;;;6244176;23;20001;-77
2022/06/13 03:50:21;;;;;;;12.63;8.43;;;;;;;;;;6193621;23;20008;-78
2022/06/13 03:52:50;;;;;;;12.93;8.57;;;;;;;;;;6217545;23;20004;-77
2022/06/13 03:55:43;;;;;;;12.52;8.18;;;;;;;;;;6217724;23;20082;-77
2022/06/13 03:58:15;;;;;;;14.65;7.63;;;;;;;;;;6218540;22;19996;-79
2022/06/13 04:00:53;;;;;;;17.25;7.95;;;;;;;;;;6175514;23;20443;-78
2022/06/13 04:03:19;;;;;;;17.80;7.78;;;;;;;;;;6195008;23;20495;-77
2022/06/13 04:05:55;;;;;;;12.85;7.30;;;;;;;;;;6219421;23;20004;-78
2022/06/13 04:08:20;;;;;;;8.75;7.07;;;;;;;;;;6246157;23;20004;-78
2022/06/13 04:11:06;;;;;;;13.48;7.95;;;;;;;;;;6246419;23;20018;-77
2022/06/13 04:13:49;;;;;;;16.27;7.43;;;;;;;;;;6221232;23;20014;-75
2022/06/13 04:16:32;;;;;;;15.43;8.13;;;;;;;;;;6196666;23;20012;-76
2022/06/13 04:19:42;;;;;;;15.70;8.73;;;;;;;;;;6202951;23;20000;-75
2022/06/13 04:22:26;;;;;;;21.08;9.35;;;;;;;;;;6219358;23;20008;-77
2022/06/13 04:25:33;;;;;;;23.08;10.05;;;;;;;;;;6245288;23;20000;-76
2022/06/13 04:28:35;;;;;;;16.33;8.63;;;;;;;;;;6199893;23;20008;-77
2022/06/13 04:31:01;;;;;;;13.00;9.93;;;;;;;;;;6218736;23;20004;-77
2022/06/13 04:33:30;;;;;;;22.45;9.70;;;;;;;;;;6218933;23;20004;-76
2022/06/13 04:35:55;;;;;;;23.50;10.43;;;;;;;;;;6245408;23;20393;-77
2022/06/13 04:38:21;;;;;;;15.63;10.68;;;;;;;;;;6196592;23;20004;-76
2022/06/13 04:40:51;;;;;;;17.02;9.75;;;;;;;;;;6228116;23;20004;-77
2022/06/13 04:43:18;;;;;;;12.40;8.95;;;;;;;;;;6242737;23;20355;-72
2022/06/13 04:45:43;;;;;;;13.93;8.80;;;;;;;;;;6190578;23;20008;-76
2022/06/13 04:48:09;;;;;;;11.13;8.68;;;;;;;;;;6241649;23;20000;-76
2022/06/13 04:50:36;;;;;;;11.20;8.05;;;;;;;;;;6216182;23;20351;-76
2022/06/13 04:53:02;;;;;;;12.60;7.05;;;;;;;;;;6216092;23;20019;-75
2022/06/13 04:55:45;;;;;;;8.73;6.25;;;;;;;;;;6214331;23;20098;-74
2022/06/13 04:58:28;;;;;;;10.70;6.55;;;;;;;;;;6241564;23;20092;-75
2022/06/13 05:01:04;;;;;;;8.55;6.00;;;;;;;;;;6189137;23;20004;-74
2022/06/13 05:03:38;;;;;;;10.45;6.45;;;;;;;;;;6187755;23;20004;-75
2022/06/13 05:06:24;;;;;;;8.95;6.22;;;;;;;;;;6188548;23;20023;-73
2022/06/13 05:08:58;;;;;;;16.02;7.43;;;;;;;;;;6238644;23;20027;-75
2022/06/13 05:11:29;;;;;;;8.25;5.30;;;;;;;;;;6209178;23;20005;-71
2022/06/13 05:14:00;;;;;;;8.38;5.60;;;;;;;;;;6239810;23;20427;-77
2022/06/13 05:16:48;;;;;;;7.22;5.43;;;;;;;;;;6183430;23;20592;-74
2022/06/13 05:19:32;;;;;;;7.93;5.80;;;;;;;;;;6214834;23;20024;-74
2022/06/13 05:22:09;;;;;;;14.50;5.60;;;;;;;;;;6212750;23;20505;-74
2022/06/13 05:24:42;;;;;;;9.10;5.03;;;;;;;;;;6236786;23;20062;-74
2022/06/13 05:27:08;;;;;;;6.93;5.68;;;;;;;;;;6209875;23;20000;-73
2022/06/13 05:29:34;;;;;;;12.18;5.43;;;;;;;;;;6211163;23;20004;-73
2022/06/13 05:32:02;;;;;;;6.38;4.43;;;;;;;;;;6239553;23;20011;-74
2022/06/13 05:34:32;;;;;;;9.23;4.70;;;;;;;;;;6241398;23;20000;-73
2022/06/13 05:36:57;;;;;;;7.78;4.47;;;;;;;;;;6239933;23;20008;-75
2022/06/13 05:39:23;;;;;;;8.45;5.72;;;;;;;;;;6215387;23;20027;-73
2022/06/13 05:41:48;;;;;;;9.43;5.25;;;;;;;;;;6239641;23;20424;-73
2022/06/13 05:44:14;;;;;;;5.63;4.50;;;;;;;;;;6212430;23;20016;-75
2022/06/13 05:46:41;;;;;;;7.75;5.00;;;;;;;;;;6214561;23;20004;-75
2022/06/13 05:49:06;;;;;;;12.23;5.70;;;;;;;;;;6210897;23;20008;-75
2022/06/13 05:51:32;;;;;;;5.95;4.97;;;;;;;;;;6237801;23;20066;-75
2022/06/13 05:53:58;;;;;;;10.93;5.75;;;;;;;;;;6236093;23;20083;-77
2022/06/13 05:56:24;;;;;;;9.35;5.18;;;;;;;;;;6211999;23;20004;-75
2022/06/13 05:58:53;;;;;;;11.80;6.30;;;;;;;;;;6238208;23;20052;-75
2022/06/13 06:01:18;;;;;;;8.63;5.15;;;;;;;;;;6236303;23;20004;-74
2022/06/13 06:03:46;;;;;;;8.27;5.07;;;;;;;;;;6208705;23;20063;-73
2022/06/13 06:06:23;;;;;;;11.93;4.80;;;;;;;;;;6212619;23;20008;-74
2022/06/13 06:08:49;;;;;;;5.75;3.95;;;;;;;;;;6213513;23;20016;-73
2022/06/13 06:11:14;;;;;;;7.97;4.72;;;;;;;;;;6187534;23;20023;-76
2022/06/13 06:13:40;;;;;;;5.18;4.18;;;;;;;;;;6240451;23;20477;-74
2022/06/13 06:16:06;;;;;;;6.72;4.80;;;;;;;;;;6236529;23;20371;-75
2022/06/13 06:18:32;;;;;;;3.80;3.50;;;;;;;;;;6240383;23;20301;-75
2022/06/13 06:21:06;;;;;;;4.00;3.70;;;;;;;;;;6214514;23;20012;-75
2022/06/13 06:23:32;;;;;;;4.30;3.65;;;;;;;;;;6216284;23;19996;-76
2022/06/13 06:26:04;;;;;;;10.50;4.97;;;;;;;;;;6247542;23;20039;-76
2022/06/13 06:28:30;;;;;;;6.95;3.30;;;;;;;;;;6216526;23;20038;-76
2022/06/13 06:30:56;;;;;;;3.90;3.60;;;;;;;;;;6218301;23;20004;-74
2022/06/13 06:33:22;;;;;;;5.63;3.63;;;;;;;;;;6245959;23;20419;-73
2022/06/13 06:35:48;;;;;;;3.60;3.30;;;;;;;;;;6244939;23;20335;-75
2022/06/13 06:38:14;;;;;;;5.82;3.47;;;;;;;;;;6217802;23;20074;-75
2022/06/13 06:40:40;;;;;;;3.72;3.42;;;;;;;;;;6245388;23;20019;-74
2022/06/13 06:43:05;;;;;;;4.38;3.08;;;;;;;;;;6238769;23;19996;-74
2022/06/13 06:45:31;;;;;;;4.40;3.17;;;;;;;;;;6242914;23;20047;-75
2022/06/13 06:47:56;;;;;;;5.03;3.08;;;;;;;;;;6242573;23;20004;-73
2022/06/13 06:50:30;;;;;;;3.50;3.05;;;;;;;;;;6239663;23;20433;-75
2022/06/13 06:52:55;;;;;;;5.90;3.20;;;;;;;;;;6186922;23;20028;-74
2022/06/13 07:00:59;;;;;;;5.63;3.25;;;;;;;;;;6218087;23;20095;-72
2022/06/13 07:03:26;;;;;;;4.05;3.72;;;;;;;;;;6213341;23;20000;-75
2022/06/13 07:05:52;;;;;;;6.85;4.05;;;;;;;;;;6237538;23;20008;-74
2022/06/13 07:08:17;;;;;;;4.45;3.53;;;;;;;;;;6237649;23;20003;-75
2022/06/13 07:10:47;;;;;;;8.43;4.18;;;;;;;;;;6211680;23;20066;-74
2022/06/13 07:13:14;;;;;;;3.58;3.28;;;;;;;;;;6239118;23;20058;-79
2022/06/13 07:15:50;;;;;;;7.68;3.72;;;;;;;;;;6241289;23;20401;-78
2022/06/13 07:18:16;;;;;;;5.93;2.60;;;;;;;;;;6240438;23;20000;-77
2022/06/13 07:20:41;;;;;;;3.40;2.40;;;;;;;;;;6193833;23;20402;-78
2022/06/13 07:23:07;;;;;;;4.85;4.43;;;;;;;;;;6243228;23;20007;-76
2022/06/13 07:25:33;;;;;;;4.78;2.42;;;;;;;;;;6244535;23;20004;-77
2022/06/13 07:27:59;;;;;;;5.38;3.08;;;;;;;;;;6243882;23;20029;-76
2022/06/13 07:30:27;;;;;;;5.95;3.28;;;;;;;;;;6216511;23;20600;-80
2022/06/13 07:32:53;;;;;;;;;;;;;;;;;;6243642;23;20014;-79
2022/06/13 07:35:19;;;;;;;5.35;4.65;;;;;;;;;;6217109;23;20377;-76
2022/06/13 07:40:29;;;;;;;5.15;3.75;;;;;;;;;;6246851;23;20074;-78
2022/06/13 07:42:56;;;;;;;4.80;4.22;;;;;;;;;;6214466;23;20004;-80
2022/06/13 07:45:23;;;;;;;3.97;3.50;;;;;;;;;;6212092;23;20016;-81
2022/06/13 07:47:49;;;;;;;22.50;19.37;;;;;;;;;;6187243;23;20603;-76
2022/06/13 07:50:15;;;;;;;11.52;3.80;;;;;;;;;;6237865;23;20004;-76
2022/06/13 07:52:44;;;;;;;4.72;3.03;;;;;;;;;;6237703;23;20536;-79
2022/06/13 07:55:10;;;;;;;16.15;4.15;;;;;;;;;;6212737;23;20090;-80
2022/06/13 07:57:36;;;;;;;4.22;2.90;;;;;;;;;;6241350;23;20007;-77
2022/06/13 08:00:02;;;;;;;5.85;2.97;;;;;;;;;;6214698;23;19996;-80
2022/06/13 08:02:51;;;;;;;5.38;3.50;;;;;;;;;;6212060;23;20000;-81
2022/06/13 08:05:16;;;;;;;6.70;3.35;;;;;;;;;;6240070;23;20018;-80
2022/06/13 08:07:42;;;;;;;5.85;3.22;;;;;;;;;;6209906;23;20031;-81
2022/06/13 08:10:08;;;;;;;5.53;4.65;;;;;;;;;;6237354;23;20004;-80
2022/06/13 08:12:37;;;;;;;10.25;8.93;;;;;;;;;;6212112;23;20024;-82
2022/06/13 08:15:07;;;;;;;3.90;3.25;;;;;;;;;;6165786;23;20004;-79
2022/06/13 08:17:33;;;;;;;7.05;3.75;;;;;;;;;;6209226;23;20510;-79
2022/06/13 08:19:59;;;;;;;5.68;5.03;;;;;;;;;;6220237;23;20001;-79
2022/06/13 08:22:25;;;;;;;6.95;4.70;;;;;;;;;;6217446;23;20053;-80
2022/06/13 08:24:51;;;;;;;5.10;3.97;;;;;;;;;;6186600;23;20011;-76
2022/06/13 08:27:16;;;;;;;9.73;5.93;;;;;;;;;;6210920;23;20059;-82
2022/06/13 08:29:42;;;;;;;7.65;5.05;;;;;;;;;;6184347;23;20016;-80
2022/06/13 08:32:11;;;;;;;4.35;3.20;;;;;;;;;;6185304;23;20031;-80
2022/06/13 08:34:37;;;;;;;7.55;3.50;;;;;;;;;;6162190;23;20032;-80
2022/06/13 08:37:03;;;;;;;5.00;4.40;;;;;;;;;;6210245;23;20009;-79
2022/06/13 08:39:31;;;;;;;6.15;3.55;;;;;;;;;;6184634;23;20079;-80
2022/06/13 08:42:05;;;;;;;4.17;3.30;;;;;;;;;;6169450;23;20018;-79
2022/06/13 08:45:05;;;;;;;5.00;4.35;;;;;;;;;;6189746;23;20032;-79
2022/06/13 08:47:37;;;;;;;4.95;4.15;;;;;;;;;;6213648;23;20062;-80
2022/06/13 08:50:20;;;;;;;4.05;3.20;;;;;;;;;;6187864;23;20011;-78
2022/06/13 08:52:48;;;;;;;10.38;8.68;;;;;;;;;;6161025;23;20016;-80
2022/06/13 08:55:26;;;;;;;4.57;4.10;;;;;;;;;;6209609;23;20353;-80
2022/06/13 08:58:03;;;;;;;7.07;5.47;;;;;;;;;;6161598;23;20004;-78
2022/06/13 09:00:30;;;;;;;5.95;4.10;;;;;;;;;;6164331;23;20127;-78
2022/06/13 09:03:24;;;;;;;5.63;3.38;;;;;;;;;;6177206;23;20012;-81
2022/06/13 09:06:02;;;;;;;4.18;3.30;;;;;;;;;;6167382;23;20020;-80
2022/06/13 09:08:40;;;;;;;13.37;11.73;;;;;;;;;;6166326;23;20005;-80
2022/06/13 09:11:29;;;;;;;4.05;3.45;;;;;;;;;;6165000;23;20100;-80
2022/06/13 09:14:02;;;;;;;4.70;4.25;;;;;;;;;;6211938;23;20076;-81
2022/06/13 09:16:32;;;;;;;7.05;3.92;;;;;;;;;;6197770;23;20009;-78
2022/06/13 09:19:00;;;;;;;4.20;3.60;;;;;;;;;;6184514;23;20016;-81
2022/06/13 09:21:43;;;;;;;5.97;3.22;;;;;;;;;;6218086;23;20057;-80
2022/06/13 09:24:23;;;;;;;4.03;2.97;;;;;;;;;;6217185;23;20027;-79
2022/06/13 09:26:54;;;;;;;6.32;3.20;;;;;;;;;;6189757;23;20351;-79
2022/06/13 09:29:41;;;;;;;4.05;3.42;;;;;;;;;;6135715;23;20124;-78
2022/06/13 09:32:32;;;;;;;3.70;3.13;;;;;;;;;;6161081;23;20499;-80
2022/06/13 09:35:41;;;;;;;9.05;3.08;;;;;;;;;;6183888;23;20043;-79
2022/06/13 09:38:35;;;;;;;5.53;3.80;;;;;;;;;;6212415;23;20005;-80
2022/06/13 09:41:04;;;;;;;4.78;3.20;;;;;;;;;;6181072;23;20012;-78
2022/06/13 09:43:50;;;;;;;3.70;3.40;;;;;;;;;;6230870;22;20015;-78
2022/06/13 09:46:30;;;;;;;4.82;4.28;;;;;;;;;;6186311;23;20032;-78
2022/06/13 09:49:36;;;;;;;5.18;3.10;;;;;;;;;;6162191;23;20059;-79
2022/06/13 09:52:06;;;;;;;7.40;3.35;;;;;;;;;;6191275;23;20080;-80
2022/06/13 09:54:42;;;;;;;5.35;3.53;;;;;;;;;;6184029;23;20004;-77
2022/06/13 09:57:20;;;;;;;3.75;3.00;;;;;;;;;;6159697;23;20004;-77
2022/06/13 09:59:51;;;;;;;;;;;;;;;;;;6211270;23;20008;-76
2022/06/13 10:02:33;;;;;;;4.95;3.40;;;;;;;;;;6188719;23;19919;-77
2022/06/13 10:05:20;;;;;;;5.78;3.10;;;;;;;;;;6169646;23;20008;-78
2022/06/13 10:08:50;;;;;;;3.70;3.35;;;;;;;;;;6186536;23;20088;-76
2022/06/13 10:11:17;;;;;;;7.38;6.00;;;;;;;;;;6099849;23;20043;-76
2022/06/13 10:13:46;;;;;;;14.20;9.50;;;;;;;;;;6190568;23;20008;-77
2022/06/13 10:16:11;;;;;;;7.80;4.82;;;;;;;;;;6233461;23;20069;-78
2022/06/13 10:19:05;;;;;;;4.47;3.40;;;;;;;;;;6247080;23;20556;-77
2022/06/13 10:21:49;;;;;;;4.93;3.88;;;;;;;;;;6243386;23;20011;-76
2022/06/13 10:24:28;;;;;;;9.38;5.80;;;;;;;;;;6226909;23;20008;-75
2022/06/13 10:27:04;;;;;;;4.82;3.50;;;;;;;;;;6195349;23;20032;-78
2022/06/13 10:29:42;;;;;;;9.15;7.90;;;;;;;;;;6191333;23;20009;-77
2022/06/13 10:32:23;;;;;;;9.43;8.40;;;;;;;;;;6217900;23;20424;-77
2022/06/13 10:35:13;;;;;;;4.53;4.05;;;;;;;;;;6243263;23;20004;-77
2022/06/13 10:37:48;;;;;;;5.25;4.78;;;;;;;;;;6215024;23;20004;-78
2022/06/13 10:40:13;;;;;;;6.00;3.70;;;;;;;;;;6241787;23;20593;-79
2022/06/13 10:42:39;;;;;;;8.38;7.55;;;;;;;;;;6243934;23;20397;-76
2022/06/13 10:45:10;;;;;;;15.23;8.63;;;;;;;;;;6253531;23;20058;-77
2022/06/13 10:47:56;;;;;;;5.32;3.95;;;;;;;;;;6191559;23;20030;-80
2022/06/13 10:50:59;;;;;;;5.57;4.63;;;;;;;;;;6214325;23;20016;-77
2022/06/13 10:53:38;;;;;;;12.23;9.45;;;;;;;;;;6214912;23;20086;-78
2022/06/13 10:56:07;;;;;;;7.78;6.38;;;;;;;;;;6218630;23;20073;-78
2022/06/13 10:58:50;;;;;;;8.45;7.15;;;;;;;;;;6190709;23;20008;-79
2022/06/13 11:01:23;;;;;;;27.60;20.15;;;;;;;;;;6216087;23;20000;-78
2022/06/13 11:04:17;;;;;;;7.47;3.60;;;;;;;;;;6225587;23;20004;-81
2022/06/13 11:06:50;;;;;;;5.40;4.90;;;;;;;;;;6245271;23;20532;-80
2022/06/13 11:09:25;;;;;;;15.43;12.68;;;;;;;;;;6217961;23;20027;-80
2022/06/13 11:11:55;;;;;;;4.93;4.07;;;;;;;;;;6218199;23;20012;-79
2022/06/13 11:14:27;;;;;;;6.13;3.83;;;;;;;;;;6214988;23;20069;-80
2022/06/13 11:25:32;;;;;;;5.65;3.28;;;;;;;;;;6159726;23;20066;-81
2022/06/13 11:28:12;;;;;;;10.45;6.80;;;;;;;;;;6126515;23;20009;-79
2022/06/13 11:30:46;;;;;;;5.38;4.35;;;;;;;;;;6150501;23;20008;-81
2022/06/13 11:33:26;;;;;;;5.53;3.72;;;;;;;;;;6212831;23;20408;-82
2022/06/13 11:36:08;;;;;;;10.88;3.70;;;;;;;;;;6240252;23;20443;-82
2022/06/13 11:38:37;;;;;;;6.45;4.57;;;;;;;;;;6213421;23;20027;-80
2022/06/13 11:41:20;;;;;;;5.15;3.70;;;;;;;;;;6213454;23;20000;-79
2022/06/13 11:43:50;;;;;;;6.53;4.13;;;;;;;;;;6241750;23;20058;-80
2022/06/13 11:46:26;;;;;;;;;;;;;;;;;;6258529;23;20011;-78
2022/06/13 11:48:51;;;;;;;14.98;9.40;;;;;;;;;;6244529;23;19914;-79
2022/06/13 11:51:23;;;;;;;75.07;45.72;;;;;;;;;;6215678;23;20004;-81
2022/06/13 11:53:50;;;;;;;4.03;3.65;;;;;;;;;;6216611;23;19996;-79
2022/06/13 11:56:32;;;;;;;5.97;3.45;;;;;;;;;;6190000;23;20038;-79
2022/06/13 11:59:00;;;;;;;4.05;3.17;;;;;;;;;;6241321;23;20038;-80
2022/06/13 12:01:26;;;;;;;12.20;6.07;;;;;;;;;;6214778;23;20016;-79
2022/06/13 12:04:03;;;;;;;5.30;3.70;;;;;;;;;;6243620;23;20440;-79
2022/06/13 12:06:35;;;;;;;52.85;36.92;;;;;;;;;;6235621;23;20461;-80
2022/06/13 12:09:04;;;;;;;4.07;3.60;;;;;;;;;;6244053;23;20381;-80
2022/06/13 12:11:33;;;;;;;9.57;3.80;;;;;;;;;;6241875;23;20016;-77
2022/06/13 12:14:01;;;;;;;9.07;7.78;;;;;;;;;;6243912;23;19996;-79
2022/06/13 12:17:01;;;;;;;4.75;3.80;;;;;;;;;;6218085;23;20424;-80
2022/06/13 12:19:34;;;;;;;6.05;4.18;;;;;;;;;;6216588;23;20004;-79
2022/06/13 12:22:03;;;;;;;6.38;4.57;;;;;;;;;;6244474;23;20008;-79
2022/06/13 12:24:48;;;;;;;14.60;10.07;;;;;;;;;;6216997;23;19999;-78
2022/06/13 12:27:28;;;;;;;8.15;6.65;;;;;;;;;;6257755;23;20502;-79
2022/06/13 12:30:09;;;;;;;10.45;5.82;;;;;;;;;;6244527;23;20007;-80
2022/06/13 12:32:40;;;;;;;15.68;9.50;;;;;;;;;;6246965;23;20038;-80
2022/06/13 12:35:11;;;;;;;5.00;3.65;;;;;;;;;;6193594;23;20004;-79
2022/06/13 12:37:43;;;;;;;7.68;6.85;;;;;;;;;;6244167;23;20032;-80
2022/06/13 12:40:20;;;;;;;13.13;9.30;;;;;;;;;;6246645;23;20001;-80
2022/06/13 12:43:27;;;;;;;8.00;5.78;;;;;;;;;;6218887;23;20423;-80
2022/06/13 12:46:04;;;;;;;22.90;15.70;;;;;;;;;;6249574;23;20044;-78
2022/06/13 12:49:04;;;;;;;10.63;8.20;;;;;;;;;;6223162;23;20004;-80
2022/06/13 12:51:49;;;;;;;39.13;25.75;;;;;;;;;;6235292;23;20012;-79
2022/06/13 12:54:51;;;;;;;9.55;5.28;;;;;;;;;;6219686;23;20000;-79
2022/06/13 12:57:39;;;;;;;5.28;4.05;;;;;;;;;;6197989;23;20067;-77
2022/06/13 13:00:31;;;;;;;14.70;10.25;;;;;;;;;;6220042;23;20035;-78
2022/06/13 13:03:40;;;;;;;5.80;4.78;;;;;;;;;;6155777;23;20008;-78
2022/06/13 13:06:05;;;;;;;4.80;4.27;;;;;;;;;;6227308;23;20030;-78
2022/06/13 13:08:48;;;;;;;6.25;4.45;;;;;;;;;;6248859;23;20223;-78
2022/06/13 13:11:35;;;;;;;7.25;5.88;;;;;;;;;;6221825;23;20014;-78
2022/06/13 13:14:33;;;;;;;19.50;10.70;;;;;;;;;;6197643;23;20367;-79
2022/06/13 13:17:08;;;;;;;5.57;4.38;;;;;;;;;;6220968;23;20337;-80
2022/06/13 13:19:46;;;;;;;5.38;4.20;;;;;;;;;;6220613;23;20008;-80
2022/06/13 13:22:44;;;;;;;8.07;6.32;;;;;;;;;;6219406;23;20007;-80
2022/06/13 13:25:10;;;;;;;9.23;5.85;;;;;;;;;;6245620;23;20095;-80
2022/06/13 13:27:47;;;;;;;6.25;4.50;;;;;;;;;;6255411;23;20066;-81
2022/06/13 13:30:28;;;;;;;8.18;4.63;;;;;;;;;;6195691;23;20000;-80
2022/06/13 13:32:59;;;;;;;22.55;16.73;;;;;;;;;;6194516;23;20075;-78
2022/06/13 13:36:06;;;;;;;8.43;6.05;;;;;;;;;;6219220;23;20007;-80
2022/06/13 13:38:37;;;;;;;22.00;14.07;;;;;;;;;;6226082;23;20065;-79
2022/06/13 13:41:30;;;;;;;5.28;3.92;;;;;;;;;;6193843;23;20004;-79
2022/06/13 13:44:01;;;;;;;7.72;6.07;;;;;;;;;;6245499;23;20005;-80
2022/06/13 13:46:43;;;;;;;20.20;11.27;;;;;;;;;;6197644;23;19996;-79
2022/06/13 13:49:31;;;;;;;12.27;8.05;;;;;;;;;;6201130;23;20004;-80
2022/06/13 13:52:07;;;;;;;24.65;15.52;;;;;;;;;;6220141;23;20004;-80
2022/06/13 13:54:49;;;;;;;137.80;80.68;;;;;;;;;;6219076;23;20000;-80
2022/06/13 13:57:41;;;;;;;6.05;4.63;;;;;;;;;;6193775;23;19997;-78
2022/06/13 14:00:24;;;;;;;9.68;6.82;;;;;;;;;;6218581;23;20008;-78
2022/06/13 14:03:08;;;;;;;5.55;3.88;;;;;;;;;;6220966;23;20389;-78
2022/06/13 14:05:52;;;;;;;7.13;3.97;;;;;;;;;;6245796;23;20000;-77
2022/06/13 14:08:22;;;;;;;4.93;4.20;;;;;;;;;;6230546;23;20142;-79
2022/06/13 14:10:50;;;;;;;9.15;5.40;;;;;;;;;;6245409;23;20004;-77
2022/06/13 14:13:16;;;;;;;5.80;3.93;;;;;;;;;;6245299;23;20087;-80
2022/06/13 14:15:50;;;;;;;5.45;3.90;;;;;;;;;;6245200;23;20601;-80
2022/06/13 14:18:35;;;;;;;9.07;7.60;;;;;;;;;;6244928;23;20432;-80
2022/06/13 14:21:33;;;;;;;5.63;4.43;;;;;;;;;;6245266;23;20074;-80
2022/06/13 14:24:11;;;;;;;8.50;6.75;;;;;;;;;;6244396;23;20363;-78
2022/06/13 14:26:57;;;;;;;6.70;4.60;;;;;;;;;;6247411;23;20007;-79
2022/06/13 14:29:28;;;;;;;4.40;4.00;;;;;;;;;;6258890;22;20016;-78
2022/06/13 14:32:00;;;;;;;6.03;4.63;;;;;;;;;;6218179;23;20008;-79
2022/06/13 14:37:43;;;;;;;5.32;4.00;;;;;;;;;;6244784;23;20475;-79
2022/06/13 14:40:13;;;;;;;6.78;4.75;;;;;;;;;;6244960;23;19996;-79
2022/06/13 14:43:13;;;;;;;6.28;4.97;;;;;;;;;;6218419;23;20416;-79
2022/06/13 14:45:49;;;;;;;12.60;7.47;;;;;;;;;;6235820;23;20057;-79
2022/06/13 14:48:34;;;;;;;10.57;4.50;;;;;;;;;;6229697;23;20004;-80
2022/06/13 14:51:15;;;;;;;9.60;4.05;;;;;;;;;;6245362;23;20075;-80
2022/06/13 14:53:54;;;;;;;7.32;4.05;;;;;;;;;;6244412;23;20442;-79
2022/06/13 14:56:26;;;;;;;12.53;3.93;;;;;;;;;;6244464;23;20000;-80
2022/06/13 14:58:51;;;;;;;4.82;3.30;;;;;;;;;;6244558;23;20000;-79
2022/06/13 15:01:40;;;;;;;5.88;3.90;;;;;;;;;;6244657;23;20042;-80
2022/06/13 15:04:07;;;;;;;6.45;4.10;;;;;;;;;;6244722;23;20004;-78
2022/06/13 15:06:58;;;;;;;5.38;3.30;;;;;;;;;;6217841;23;20341;-79
2022/06/13 15:09:38;;;;;;;6.97;4.00;;;;;;;;;;6258782;22;20348;-79
2022/06/13 15:12:09;;;;;;;7.20;4.03;;;;;;;;;;6195073;23;20028;-79
2022/06/13 15:14:43;;;;;;;12.95;4.07;;;;;;;;;;6244593;23;20007;-80
2022/06/13 15:17:12;;;;;;;5.80;3.70;;;;;;;;;;6222059;23;20329;-79
2022/06/13 15:19:40;;;;;;;4.23;3.30;;;;;;;;;;6219146;23;20061;-80
2022/06/13 15:22:17;;;;;;;6.85;3.78;;;;;;;;;;6244190;23;20261;-80
2022/06/13 15:24:44;;;;;;;12.75;5.25;;;;;;;;;;6195159;23;20031;-79
2022/06/13 15:27:10;;;;;;;4.18;3.47;;;;;;;;;;6218316;23;19996;-79
2022/06/13 15:29:36;;;;;;;4.47;3.50;;;;;;;;;;6228935;23;20027;-79
2022/06/13 15:32:25;;;;;;;12.10;3.33;;;;;;;;;;6218080;23;20000;-81
2022/06/13 15:34:57;;;;;;;5.20;3.40;;;;;;;;;;6244973;23;20008;-80
2022/06/13 15:37:23;;;;;;;5.63;3.63;;;;;;;;;;6218591;23;20034;-80
2022/06/13 15:39:49;;;;;;;6.55;4.03;;;;;;;;;;6217537;23;20008;-80
2022/06/13 15:42:24;;;;;;;4.22;3.70;;;;;;;;;;6192771;23;20028;-79
2022/06/13 15:44:50;;;;;;;6.18;3.80;;;;;;;;;;6194059;23;20058;-79